Time;durP1;ratioP1;P1;durP2;ratioP2;P2;SDS_P1;SDS_P2;PMS_P1;PMS_P2;Temp;Humidity;BMP_temperature;BMP_pressure;BME280_temperature;BME280_humidity;BME280_pressure;Samples;Min_cycle;Max_cycle;Signal;HPM_P1;HPM_P2
2021/04/27 00:01:13;;;;;;;;;;;18.90;59.30;;;;;;5051398;28;19919;-77
2021/04/27 00:03:39;;;;;;;;;;;18.90;59.30;;;;;;5033448;28;19913;-77
2021/04/27 00:06:04;;;;;;;;;;;18.80;59.30;;;;;;5034573;28;20283;-77
2021/04/27 00:08:30;;;;;;;;;;;18.90;59.30;;;;;;5039936;28;19912;-77
2021/04/27 00:10:56;;;;;;;;;;;18.90;59.30;;;;;;5035937;28;20584;-77
2021/04/27 00:13:21;;;;;;;;;;;18.80;59.30;;;;;;5052647;28;19912;-76
2021/04/27 00:15:47;;;;;;;;;;;18.80;59.30;;;;;;5052724;28;20354;-75
2021/04/27 00:18:12;;;;;;;;;;;18.80;59.30;;;;;;5052744;28;20613;-75
2021/04/27 00:20:38;;;;;;;;;;;18.90;59.30;;;;;;5051093;28;19936;-75
2021/04/27 00:23:04;;;;;;;;;;;18.80;59.30;;;;;;5052366;28;20023;-75
2021/04/27 00:25:30;;;;;;;;;;;18.80;59.30;;;;;;5052516;28;19917;-75
2021/04/27 00:27:56;;;;;;;;;;;18.90;59.40;;;;;;5052823;28;20377;-76
2021/04/27 00:30:23;;;;;;;;;;;18.80;59.40;;;;;;5052385;28;19925;-77
2021/04/27 00:32:48;;;;;;;;;;;18.80;59.40;;;;;;5032348;28;20366;-75
2021/04/27 00:35:14;;;;;;;;;;;18.80;59.40;;;;;;5035952;28;19913;-75
2021/04/27 00:37:40;;;;;;;;;;;18.80;59.40;;;;;;5034655;28;19913;-75
2021/04/27 00:40:07;;;;;;;;;;;18.80;59.40;;;;;;5035513;28;19919;-75
2021/04/27 00:42:34;;;;;;;;;;;18.80;59.40;;;;;;5055024;28;19936;-75
2021/04/27 00:45:00;;;;;;;;;;;18.80;59.40;;;;;;5052792;28;19919;-75
2021/04/27 00:47:25;;;;;;;;;;;18.80;59.40;;;;;;5049569;28;20265;-76
2021/04/27 00:49:55;;;;;;;;;;;18.80;59.40;;;;;;5034387;28;19982;-75
2021/04/27 00:52:21;;;;;;;;;;;18.80;59.40;;;;;;5050855;28;20318;-75
2021/04/27 00:54:46;;;;;;;;;;;18.80;59.40;;;;;;5051606;28;19920;-75
2021/04/27 00:57:12;;;;;;;;;;;18.80;59.40;;;;;;5052619;28;19913;-75
2021/04/27 00:59:38;;;;;;;;;;;18.80;59.40;;;;;;5043473;28;19913;-75
2021/04/27 01:02:04;;;;;;;;;;;18.80;59.50;;;;;;5052170;28;19959;-74
2021/04/27 01:04:29;;;;;;;;;;;18.80;59.40;;;;;;5051724;28;19921;-74
2021/04/27 01:06:55;;;;;;;;;;;18.80;59.40;;;;;;5051515;28;19927;-75
2021/04/27 01:09:27;;;;;;;;;;;18.80;59.40;;;;;;5052147;28;20386;-76
2021/04/27 01:12:01;;;;;;;;;;;18.80;59.50;;;;;;5049707;28;20068;-75
2021/04/27 01:14:41;;;;;;;;;;;18.80;59.50;;;;;;5055510;28;20281;-75
2021/04/27 01:17:08;;;;;;;;;;;18.80;59.50;;;;;;5054876;28;20003;-74
2021/04/27 01:19:41;;;;;;;;;;;18.80;59.50;;;;;;5056354;28;19913;-75
2021/04/27 01:22:09;;;;;;;;;;;18.80;59.50;;;;;;5054391;28;19917;-75
2021/04/27 01:24:39;;;;;;;;;;;18.80;59.50;;;;;;5037097;28;20328;-75
2021/04/27 01:27:05;;;;;;;;;;;18.80;59.50;;;;;;5054592;28;20007;-75
2021/04/27 01:29:32;;;;;;;;;;;18.80;59.50;;;;;;5050908;28;19928;-74
2021/04/27 01:31:59;;;;;;;;;;;18.80;59.50;;;;;;5037262;28;19913;-74
2021/04/27 01:34:26;;;;;;;;;;;18.80;59.60;;;;;;5036531;28;19952;-75
2021/04/27 01:36:52;;;;;;;;;;;18.80;59.50;;;;;;5052947;28;20270;-75
2021/04/27 01:39:20;;;;;;;;;;;18.80;59.50;;;;;;5058931;28;19920;-75
2021/04/27 01:41:46;;;;;;;;;;;18.80;59.60;;;;;;5049338;28;20004;-75
2021/04/27 01:44:12;;;;;;;;;;;18.80;59.60;;;;;;5054237;28;20354;-75
2021/04/27 01:46:38;;;;;;;;;;;18.80;59.60;;;;;;5037562;28;20369;-75
2021/04/27 01:49:03;;;;;;;;;;;18.80;59.60;;;;;;5051959;28;19913;-75
2021/04/27 01:51:31;;;;;;;;;;;18.80;59.60;;;;;;5055776;28;19917;-75
2021/04/27 01:53:56;;;;;;;;;;;18.80;59.50;;;;;;5037576;28;19999;-75
2021/04/27 01:56:22;;;;;;;;;;;18.80;59.60;;;;;;5049919;28;20419;-75
2021/04/27 01:58:48;;;;;;;;;;;18.80;59.60;;;;;;5053389;28;19913;-75
2021/04/27 02:01:14;;;;;;;;;;;18.80;59.60;;;;;;5054770;28;19972;-74
2021/04/27 02:03:43;;;;;;;;;;;18.80;59.60;;;;;;5055476;28;19952;-75
2021/04/27 02:06:10;;;;;;;;;;;18.80;59.60;;;;;;5054632;28;20021;-75
2021/04/27 02:08:37;;;;;;;;;;;18.70;59.60;;;;;;5038378;28;20247;-76
2021/04/27 02:11:02;;;;;;;;;;;18.80;59.60;;;;;;5041870;28;19917;-75
2021/04/27 02:13:28;;;;;;;;;;;18.70;59.60;;;;;;5054375;28;20368;-74
2021/04/27 02:15:54;;;;;;;;;;;18.70;59.60;;;;;;5053642;28;19912;-75
2021/04/27 02:18:24;;;;;;;;;;;18.70;59.70;;;;;;5053438;28;19923;-75
2021/04/27 02:20:51;;;;;;;;;;;18.70;59.70;;;;;;5050663;28;19921;-75
2021/04/27 02:23:16;;;;;;;;;;;18.70;59.70;;;;;;5050252;28;19908;-75
2021/04/27 02:25:43;;;;;;;;;;;18.70;59.70;;;;;;5055980;28;19970;-75
2021/04/27 02:28:09;;;;;;;;;;;18.80;59.70;;;;;;5054526;28;19996;-75
2021/04/27 02:30:35;;;;;;;;;;;18.70;59.70;;;;;;5035970;28;20008;-75
2021/04/27 02:33:00;;;;;;;;;;;18.80;59.70;;;;;;5052418;28;19917;-75
2021/04/27 02:35:26;;;;;;;;;;;18.70;59.70;;;;;;5053080;28;19913;-75
2021/04/27 02:37:52;;;;;;;;;;;18.70;59.70;;;;;;5063333;28;19912;-75
2021/04/27 02:40:23;;;;;;;;;;;18.70;59.70;;;;;;5033053;28;19909;-75
2021/04/27 02:42:50;;;;;;;;;;;18.70;59.70;;;;;;5047790;28;19935;-75
2021/04/27 02:45:16;;;;;;;;;;;18.70;59.70;;;;;;5043294;28;20349;-75
2021/04/27 02:47:42;;;;;;;;;;;18.70;59.70;;;;;;5031875;28;19920;-75
2021/04/27 02:50:08;;;;;;;;;;;18.70;59.70;;;;;;5028894;28;19924;-75
2021/04/27 02:52:34;;;;;;;;;;;18.70;59.70;;;;;;5050577;28;20046;-75
2021/04/27 02:55:00;;;;;;;;;;;18.70;59.70;;;;;;5036521;28;20007;-76
2021/04/27 02:57:25;;;;;;;;;;;18.70;59.70;;;;;;5033797;28;20051;-73
2021/04/27 02:59:51;;;;;;;;;;;18.70;59.70;;;;;;5037115;28;19920;-75
2021/04/27 03:02:16;;;;;;;;;;;18.70;59.70;;;;;;5032572;28;19909;-76
2021/04/27 03:04:42;;;;;;;;;;;18.70;59.80;;;;;;5040217;28;19912;-74
2021/04/27 03:07:07;;;;;;;;;;;18.70;59.80;;;;;;5034736;28;19921;-75
2021/04/27 03:09:33;;;;;;;;;;;18.70;59.70;;;;;;5030941;28;20285;-75
2021/04/27 03:11:58;;;;;;;;;;;18.70;59.80;;;;;;5032828;28;19957;-75
2021/04/27 03:14:24;;;;;;;;;;;18.70;59.80;;;;;;5033849;28;19920;-75
2021/04/27 03:16:49;;;;;;;;;;;18.70;59.80;;;;;;5028156;28;20015;-74
2021/04/27 03:19:15;;;;;;;;;;;18.70;59.80;;;;;;5034865;28;19913;-75
2021/04/27 03:21:45;;;;;;;;;;;18.70;59.80;;;;;;5033307;28;19913;-76
2021/04/27 03:24:10;;;;;;;;;;;18.70;59.80;;;;;;5033888;28;19917;-75
2021/04/27 03:26:36;;;;;;;;;;;18.70;59.80;;;;;;5049326;28;19913;-75
2021/04/27 03:29:04;;;;;;;;;;;18.70;59.80;;;;;;5034020;28;19920;-75
2021/04/27 03:31:32;;;;;;;;;;;18.70;59.80;;;;;;5044710;28;19979;-75
2021/04/27 03:33:57;;;;;;;;;;;18.70;59.80;;;;;;5031880;28;19914;-76
2021/04/27 03:36:23;;;;;;;;;;;18.70;59.80;;;;;;5031840;28;19913;-75
2021/04/27 03:38:48;;;;;;;;;;;18.70;59.80;;;;;;5031299;28;20047;-75
2021/04/27 03:41:14;;;;;;;;;;;18.70;59.80;;;;;;5030793;28;19948;-76
2021/04/27 03:43:39;;;;;;;;;;;18.70;59.80;;;;;;5033170;28;19982;-75
2021/04/27 03:46:05;;;;;;;;;;;18.60;59.80;;;;;;5033774;28;19913;-75
2021/04/27 03:48:31;;;;;;;;;;;18.70;59.80;;;;;;5033474;28;19920;-75
2021/04/27 03:50:56;;;;;;;;;;;18.70;59.80;;;;;;5032745;28;19921;-75
2021/04/27 03:53:23;;;;;;;;;;;18.60;59.80;;;;;;5028472;28;20366;-75
2021/04/27 03:55:48;;;;;;;;;;;18.60;59.80;;;;;;5032250;28;19913;-75
2021/04/27 03:58:15;;;;;;;;;;;18.70;59.90;;;;;;5031804;28;19920;-75
2021/04/27 04:00:40;;;;;;;;;;;18.60;59.90;;;;;;5046692;28;19924;-75
2021/04/27 04:03:06;;;;;;;;;;;18.60;59.90;;;;;;5030770;28;19913;-75
2021/04/27 04:05:31;;;;;;;;;;;18.60;59.90;;;;;;5029363;28;20278;-75
2021/04/27 04:07:57;;;;;;;;;;;18.60;59.90;;;;;;5032097;28;19921;-75
2021/04/27 04:10:23;;;;;;;;;;;18.60;59.80;;;;;;5031207;28;19921;-75
2021/04/27 04:12:49;;;;;;;;;;;18.60;59.80;;;;;;5032547;28;19940;-74
2021/04/27 04:15:15;;;;;;;;;;;18.70;59.80;;;;;;5044558;28;19918;-75
2021/04/27 04:17:41;;;;;;;;;;;18.60;59.80;;;;;;5046842;28;19921;-75
2021/04/27 04:20:09;;;;;;;;;;;18.60;59.80;;;;;;5032993;28;19917;-74
2021/04/27 04:22:36;;;;;;;;;;;18.60;59.80;;;;;;5032826;28;20350;-74
2021/04/27 04:25:03;;;;;;;;;;;18.60;59.80;;;;;;5028784;28;19933;-74
2021/04/27 04:27:28;;;;;;;;;;;18.70;59.80;;;;;;5024963;28;20012;-75
2021/04/27 04:29:54;;;;;;;;;;;18.70;59.80;;;;;;5029471;28;20012;-75
2021/04/27 04:32:19;;;;;;;;;;;18.70;59.80;;;;;;5032655;28;19948;-75
2021/04/27 04:34:47;;;;;;;;;;;18.70;59.80;;;;;;5032826;28;19967;-75
2021/04/27 04:37:12;;;;;;;;;;;18.70;59.80;;;;;;5027328;28;20042;-75
2021/04/27 04:39:38;;;;;;;;;;;18.70;59.80;;;;;;5032148;28;19960;-76
2021/04/27 04:42:03;;;;;;;;;;;18.70;59.80;;;;;;5030559;28;20371;-75
2021/04/27 04:44:29;;;;;;;;;;;18.70;59.80;;;;;;5032360;28;19975;-77
2021/04/27 04:46:55;;;;;;;;;;;18.70;59.70;;;;;;5035474;28;20004;-76
2021/04/27 04:49:21;;;;;;;;;;;18.70;59.80;;;;;;5037128;28;19921;-77
2021/04/27 04:51:46;;;;;;;;;;;18.70;59.80;;;;;;5039363;28;20278;-77
2021/04/27 04:54:12;;;;;;;;;;;18.60;59.80;;;;;;5041289;28;20249;-77
2021/04/27 04:56:37;;;;;;;;;;;18.70;59.70;;;;;;5016338;28;20464;-77
2021/04/27 04:59:03;;;;;;;;;;;18.70;59.70;;;;;;5035981;28;19963;-77
2021/04/27 05:01:28;;;;;;;;;;;18.70;59.70;;;;;;5053989;28;20355;-77
2021/04/27 05:03:55;;;;;;;;;;;18.60;59.70;;;;;;5035949;28;19960;-77
2021/04/27 05:06:21;;;;;;;;;;;18.70;59.70;;;;;;5032246;28;20390;-77
2021/04/27 05:08:49;;;;;;;;;;;18.70;59.70;;;;;;5035845;28;19920;-77
2021/04/27 05:11:14;;;;;;;;;;;18.70;59.70;;;;;;5051158;28;20357;-77
2021/04/27 05:13:40;;;;;;;;;;;18.70;59.70;;;;;;5034768;28;19917;-77
2021/04/27 05:16:09;;;;;;;;;;;18.70;59.60;;;;;;5034376;28;19992;-77
2021/04/27 05:18:39;;;;;;;;;;;18.70;59.60;;;;;;5035003;28;19921;-77
2021/04/27 05:21:05;;;;;;;;;;;18.70;59.60;;;;;;5040438;28;20327;-77
2021/04/27 05:23:31;;;;;;;;;;;18.70;59.60;;;;;;5041861;28;19913;-77
2021/04/27 05:25:59;;;;;;;;;;;18.70;59.60;;;;;;5033840;28;20007;-77
2021/04/27 05:28:25;;;;;;;;;;;18.70;59.60;;;;;;5037274;28;19945;-77
2021/04/27 05:30:50;;;;;;;;;;;18.70;59.60;;;;;;5041370;28;19971;-77
2021/04/27 05:33:16;;;;;;;;;;;18.70;59.60;;;;;;5035555;28;19913;-75
2021/04/27 05:35:42;;;;;;;;;;;18.70;59.50;;;;;;5034769;28;19917;-75
2021/04/27 05:38:09;;;;;;;;;;;18.80;59.60;;;;;;5033956;28;20012;-75
2021/04/27 05:40:34;;;;;;;;;;;18.70;59.50;;;;;;5034965;28;20051;-75
2021/04/27 05:43:00;;;;;;;;;;;18.70;59.50;;;;;;5034954;28;20004;-75
2021/04/27 05:45:25;;;;;;;;;;;18.70;59.50;;;;;;5034403;28;19913;-75
2021/04/27 05:47:51;;;;;;;;;;;18.80;59.50;;;;;;5034103;28;19910;-75
2021/04/27 05:50:16;;;;;;;;;;;18.70;59.40;;;;;;5034592;28;19956;-77
2021/04/27 05:52:42;;;;;;;;;;;18.70;59.40;;;;;;5034358;28;19992;-75
2021/04/27 05:55:08;;;;;;;;;;;18.70;59.40;;;;;;5036164;28;20370;-75
2021/04/27 05:57:34;;;;;;;;;;;18.70;59.50;;;;;;5035322;28;20278;-75
2021/04/27 05:59:59;;;;;;;;;;;18.80;59.40;;;;;;5033516;28;20314;-75
2021/04/27 06:02:25;;;;;;;;;;;18.80;59.40;;;;;;5035031;28;19914;-75
2021/04/27 06:04:51;;;;;;;;;;;18.80;59.40;;;;;;5033879;28;19917;-75
2021/04/27 06:07:17;;;;;;;;;;;18.80;59.40;;;;;;5050196;28;20275;-75
2021/04/27 06:09:44;;;;;;;;;;;18.80;59.40;;;;;;5032650;28;19925;-75
2021/04/27 06:12:09;;;;;;;;;;;18.70;59.40;;;;;;5033055;28;19921;-75
2021/04/27 06:14:35;;;;;;;;;;;18.80;59.30;;;;;;5034152;28;19928;-75
2021/04/27 06:17:00;;;;;;;;;;;18.80;59.30;;;;;;5032457;28;19913;-77
2021/04/27 06:19:26;;;;;;;;;;;18.80;59.40;;;;;;5031015;28;19975;-77
2021/04/27 06:21:51;;;;;;;;;;;18.80;59.30;;;;;;5030455;28;20316;-77
2021/04/27 06:24:17;;;;;;;;;;;18.80;59.30;;;;;;5033845;28;19928;-77
2021/04/27 06:26:42;;;;;;;;;;;18.80;59.30;;;;;;5030589;28;19939;-78
2021/04/27 06:29:08;;;;;;;;;;;18.80;59.30;;;;;;5031513;28;19963;-78
2021/04/27 06:31:34;;;;;;;;;;;18.80;59.30;;;;;;5035096;28;19913;-75
2021/04/27 06:33:59;;;;;;;;;;;18.80;59.20;;;;;;5038852;28;19917;-76
2021/04/27 06:36:25;;;;;;;;;;;18.80;59.20;;;;;;5034050;28;19913;-74
2021/04/27 06:38:51;;;;;;;;;;;18.80;59.20;;;;;;5033815;28;19920;-75
2021/04/27 06:41:17;;;;;;;;;;;18.80;59.20;;;;;;5033282;28;19952;-75
2021/04/27 06:43:43;;;;;;;;;;;18.80;59.20;;;;;;5034383;28;19913;-75
2021/04/27 06:46:08;;;;;;;;;;;18.80;59.20;;;;;;5034067;28;19920;-75
2021/04/27 06:48:34;;;;;;;;;;;18.80;59.10;;;;;;5034285;28;19921;-75
2021/04/27 06:51:03;;;;;;;;;;;18.80;59.10;;;;;;5032511;28;19928;-75
2021/04/27 06:53:28;;;;;;;;;;;18.80;59.10;;;;;;5029077;28;19921;-75
2021/04/27 06:55:54;;;;;;;;;;;18.80;59.10;;;;;;5047227;28;19929;-74
2021/04/27 06:58:19;;;;;;;;;;;18.80;59.10;;;;;;5032374;28;19924;-75
2021/04/27 07:00:45;;;;;;;;;;;18.80;59.00;;;;;;5033498;28;19940;-76
2021/04/27 07:03:10;;;;;;;;;;;18.80;59.00;;;;;;5034910;28;19913;-75
2021/04/27 07:05:36;;;;;;;;;;;18.80;59.00;;;;;;5032915;28;19955;-76
2021/04/27 07:08:01;;;;;;;;;;;18.80;59.00;;;;;;5029983;28;20325;-76
2021/04/27 07:10:27;;;;;;;;;;;18.80;59.00;;;;;;5031063;28;19921;-76
2021/04/27 07:12:55;;;;;;;;;;;18.90;58.90;;;;;;5032781;28;20016;-76
2021/04/27 07:15:20;;;;;;;;;;;18.80;58.90;;;;;;5048705;28;19918;-76
2021/04/27 07:17:46;;;;;;;;;;;18.80;58.90;;;;;;5034200;28;20323;-76
2021/04/27 07:20:12;;;;;;;;;;;18.80;58.90;;;;;;5032305;28;19913;-76
2021/04/27 07:22:38;;;;;;;;;;;18.80;58.90;;;;;;5032568;28;19963;-76
2021/04/27 07:25:04;;;;;;;;;;;18.80;58.90;;;;;;5031433;28;20003;-76
2021/04/27 07:27:30;;;;;;;;;;;18.80;58.90;;;;;;5033243;28;19917;-76
2021/04/27 07:29:57;;;;;;;;;;;18.80;58.90;;;;;;5031327;28;19929;-75
2021/04/27 07:32:23;;;;;;;;;;;18.90;58.90;;;;;;5030461;28;20362;-76
2021/04/27 07:34:49;;;;;;;;;;;18.90;58.90;;;;;;5032198;28;19984;-76
2021/04/27 07:37:16;;;;;;;;;;;18.90;58.80;;;;;;5031784;28;19936;-76
2021/04/27 07:39:41;;;;;;;;;;;18.80;58.80;;;;;;5027624;28;19919;-76
2021/04/27 07:42:07;;;;;;;;;;;18.90;58.80;;;;;;5036192;28;19913;-76
2021/04/27 07:44:32;;;;;;;;;;;18.90;58.80;;;;;;5030970;28;19913;-76
2021/04/27 07:46:58;;;;;;;;;;;18.90;58.80;;;;;;5032869;28;20008;-76
2021/04/27 07:49:24;;;;;;;;;;;18.90;58.70;;;;;;5030530;28;19921;-76
2021/04/27 07:51:49;;;;;;;;;;;18.90;58.70;;;;;;5032397;28;20699;-76
2021/04/27 07:54:15;;;;;;;;;;;18.90;58.70;;;;;;5032334;28;20630;-76
2021/04/27 07:56:40;;;;;;;;;;;18.90;58.70;;;;;;5034530;28;19972;-76
2021/04/27 07:59:06;;;;;;;;;;;18.90;58.70;;;;;;5032937;28;19949;-78
2021/04/27 08:01:33;;;;;;;;;;;18.90;58.70;;;;;;5031354;28;19939;-76
2021/04/27 08:03:59;;;;;;;;;;;18.90;58.70;;;;;;5028053;28;20329;-76
2021/04/27 08:06:25;;;;;;;;;;;18.90;58.70;;;;;;5034805;28;19920;-76
2021/04/27 08:08:52;;;;;;;;;;;18.90;58.70;;;;;;5052199;28;19926;-76
2021/04/27 08:11:18;;;;;;;;;;;18.90;58.60;;;;;;5052151;28;19924;-76
2021/04/27 08:13:43;;;;;;;;;;;19.00;58.60;;;;;;5031976;28;19913;-76
2021/04/27 08:16:09;;;;;;;;;;;19.00;58.60;;;;;;5051184;28;19916;-76
2021/04/27 08:18:37;;;;;;;;;;;19.00;58.60;;;;;;5038349;28;19917;-76
2021/04/27 08:21:09;;;;;;;;;;;18.90;58.50;;;;;;5037843;28;19909;-76
2021/04/27 08:23:36;;;;;;;;;;;19.00;58.50;;;;;;5056867;28;19948;-76
2021/04/27 08:26:02;;;;;;;;;;;18.90;58.50;;;;;;5056923;28;19912;-77
2021/04/27 08:28:27;;;;;;;;;;;19.00;58.50;;;;;;5041828;28;19915;-76
2021/04/27 08:30:56;;;;;;;;;;;19.00;58.50;;;;;;5041163;28;19931;-77
2021/04/27 08:33:22;;;;;;;;;;;19.00;58.50;;;;;;5056428;28;20011;-76
2021/04/27 08:35:48;;;;;;;;;;;19.00;58.50;;;;;;5054041;28;19963;-76
2021/04/27 08:38:20;;;;;;;;;;;19.00;58.50;;;;;;5041113;28;20015;-76
2021/04/27 08:40:45;;;;;;;;;;;19.00;58.40;;;;;;5038500;28;19956;-76
2021/04/27 08:43:11;;;;;;;;;;;19.00;58.40;;;;;;5033696;28;19961;-76
2021/04/27 08:45:37;;;;;;;;;;;19.00;58.40;;;;;;5038657;28;19908;-77
2021/04/27 08:48:02;;;;;;;;;;;19.00;58.40;;;;;;5038319;28;19912;-76
2021/04/27 08:50:29;;;;;;;;;;;19.10;58.30;;;;;;5058323;28;19916;-76
2021/04/27 08:52:55;;;;;;;;;;;19.10;58.30;;;;;;5059255;28;20008;-76
2021/04/27 08:55:20;;;;;;;;;;;19.10;58.20;;;;;;5056343;28;19959;-76
2021/04/27 08:57:48;;;;;;;;;;;19.10;58.20;;;;;;5024421;28;19939;-76
2021/04/27 09:00:16;;;;;;;;;;;19.10;58.10;;;;;;5037835;28;19909;-76
2021/04/27 09:02:43;;;;;;;;;;;19.10;58.10;;;;;;5038523;28;19913;-76
2021/04/27 09:05:22;;;;;;;;;;;19.10;58.20;;;;;;5056426;28;19913;-76
2021/04/27 09:07:48;;;;;;;;;;;19.10;58.10;;;;;;5056163;28;19960;-76
2021/04/27 09:10:15;;;;;;;;;;;19.10;58.10;;;;;;5038596;28;20424;-76
2021/04/27 09:12:46;;;;;;;;;;;19.10;58.20;;;;;;5038380;28;19913;-77
2021/04/27 09:15:21;;;;;;;;;;;19.10;58.20;;;;;;5038205;28;19913;-76
2021/04/27 09:17:47;;;;;;;;;;;19.10;58.20;;;;;;5054818;28;19912;-76
2021/04/27 09:20:12;;;;;;;;;;;19.10;58.20;;;;;;5055969;28;19974;-76
2021/04/27 09:22:39;;;;;;;;;;;19.10;58.20;;;;;;5037331;28;19917;-76
2021/04/27 09:25:08;;;;;;;;;;;19.10;58.10;;;;;;5055442;28;19912;-76
2021/04/27 09:27:38;;;;;;;;;;;19.10;58.10;;;;;;5040950;28;19936;-76
2021/04/27 09:30:24;;;;;;;;;;;19.10;58.10;;;;;;5055267;28;20362;-76
2021/04/27 09:32:57;;;;;;;;;;;19.20;58.10;;;;;;5037780;28;20266;-76
2021/04/27 09:35:44;;;;;;;;;;;19.20;58.00;;;;;;5035821;28;19951;-76
2021/04/27 09:38:16;;;;;;;;;;;19.10;58.00;;;;;;5040863;28;19952;-76
2021/04/27 09:40:54;;;;;;;;;;;19.10;58.00;;;;;;5049123;28;19913;-77
2021/04/27 09:43:21;;;;;;;;;;;19.20;58.00;;;;;;5036743;28;20392;-76
2021/04/27 09:45:48;;;;;;;;;;;19.20;58.00;;;;;;5038026;28;20312;-76
2021/04/27 09:48:13;;;;;;;;;;;19.20;58.00;;;;;;5054514;28;20366;-76
2021/04/27 09:50:39;;;;;;;;;;;19.20;57.90;;;;;;5044873;28;19929;-76
2021/04/27 09:53:05;;;;;;;;;;;19.20;57.90;;;;;;5032131;28;19920;-75
2021/04/27 09:55:32;;;;;;;;;;;19.20;57.90;;;;;;5038614;28;19912;-76
2021/04/27 09:57:58;;;;;;;;;;;19.20;57.80;;;;;;5035766;28;19920;-76
2021/04/27 10:00:26;;;;;;;;;;;19.20;57.80;;;;;;5053496;28;19913;-75
2021/04/27 10:02:52;;;;;;;;;;;19.20;57.90;;;;;;5037832;28;19996;-76
2021/04/27 10:05:18;;;;;;;;;;;19.20;57.90;;;;;;5034716;28;19964;-78
2021/04/27 10:07:44;;;;;;;;;;;19.20;57.80;;;;;;5036777;28;19990;-76
2021/04/27 10:10:12;;;;;;;;;;;19.20;57.80;;;;;;5043936;28;20347;-78
2021/04/27 10:12:38;;;;;;;;;;;19.20;57.80;;;;;;5030900;28;19920;-76
2021/04/27 10:15:04;;;;;;;;;;;19.30;57.80;;;;;;5054596;28;20362;-77
2021/04/27 10:17:30;;;;;;;;;;;19.30;57.80;;;;;;5045120;28;19919;-78
2021/04/27 10:20:02;;;;;;;;;;;19.20;57.70;;;;;;5036503;28;19913;-77
2021/04/27 10:22:28;;;;;;;;;;;19.20;57.70;;;;;;5039533;28;19912;-77
2021/04/27 10:24:55;;;;;;;;;;;19.20;57.70;;;;;;5037553;28;20012;-75
2021/04/27 10:27:27;;;;;;;;;;;19.30;57.70;;;;;;5036820;28;19916;-78
2021/04/27 10:29:57;;;;;;;;;;;19.30;57.70;;;;;;5044457;28;19920;-77
2021/04/27 10:32:24;;;;;;;;;;;19.30;57.70;;;;;;5053101;28;19919;-77
2021/04/27 10:34:58;;;;;;;;;;;19.30;57.70;;;;;;5051054;28;19913;-76
2021/04/27 10:37:24;;;;;;;;;;;19.30;57.60;;;;;;5043341;28;19922;-77
2021/04/27 10:39:50;;;;;;;;;;;19.30;57.60;;;;;;5034452;28;19916;-77
2021/04/27 10:42:20;;;;;;;;;;;19.30;57.60;;;;;;5039631;28;20047;-77
2021/04/27 10:44:50;;;;;;;;;;;19.30;57.60;;;;;;5025952;28;19970;-76
2021/04/27 10:47:17;;;;;;;;;;;19.30;57.60;;;;;;5050989;28;19921;-77
2021/04/27 10:49:47;;;;;;;;;;;19.30;57.50;;;;;;5055196;28;19927;-76
2021/04/27 10:52:33;;;;;;;;;;;19.30;57.50;;;;;;5055222;28;19927;-76
2021/04/27 10:55:17;;;;;;;;;;;19.30;57.50;;;;;;5052211;28;19920;-76
2021/04/27 10:57:46;;;;;;;;;;;19.30;57.50;;;;;;5056902;28;19913;-75
2021/04/27 11:00:31;;;;;;;;;;;19.30;57.40;;;;;;5053890;28;19991;-76
2021/04/27 11:03:08;;;;;;;;;;;19.30;57.40;;;;;;5049988;28;19919;-77
2021/04/27 11:05:48;;;;;;;;;;;19.30;57.40;;;;;;5051884;28;19928;-76
2021/04/27 11:08:13;;;;;;;;;;;19.30;57.40;;;;;;5035846;28;19974;-76
2021/04/27 11:10:43;;;;;;;;;;;19.30;57.30;;;;;;5049912;28;19921;-76
2021/04/27 11:13:14;;;;;;;;;;;19.30;57.30;;;;;;5058086;28;19965;-77
2021/04/27 11:15:43;;;;;;;;;;;19.30;57.30;;;;;;5054072;28;20054;-76
2021/04/27 11:18:10;;;;;;;;;;;19.30;57.30;;;;;;5041478;28;19913;-76
2021/04/27 11:20:45;;;;;;;;;;;19.30;57.30;;;;;;5051514;28;19912;-76
2021/04/27 11:23:30;;;;;;;;;;;19.30;57.30;;;;;;5053868;28;20385;-77
2021/04/27 11:26:01;;;;;;;;;;;19.30;57.30;;;;;;5045890;28;19938;-77
2021/04/27 11:28:49;;;;;;;;;;;19.30;57.20;;;;;;5035493;28;19913;-77
2021/04/27 11:31:16;;;;;;;;;;;19.40;57.20;;;;;;5042309;28;20442;-77
2021/04/27 11:34:00;;;;;;;;;;;19.40;57.20;;;;;;5034404;28;19916;-77
2021/04/27 11:36:36;;;;;;;;;;;19.40;57.10;;;;;;5052852;28;19913;-77
2021/04/27 11:39:11;;;;;;;;;;;19.40;57.10;;;;;;5021213;28;19936;-76
2021/04/27 11:41:56;;;;;;;;;;;19.40;57.10;;;;;;5051503;28;19913;-76
2021/04/27 11:44:23;;;;;;;;;;;19.40;57.20;;;;;;5052909;28;20303;-76
2021/04/27 11:47:08;;;;;;;;;;;19.40;57.10;;;;;;5033214;28;19916;-77
2021/04/27 11:49:49;;;;;;;;;;;19.40;57.10;;;;;;5048500;28;19921;-77
2021/04/27 11:52:15;;;;;;;;;;;19.40;57.10;;;;;;5028398;28;20341;-77
2021/04/27 11:54:41;;;;;;;;;;;19.40;57.10;;;;;;5033310;28;20235;-77
2021/04/27 11:57:13;;;;;;;;;;;19.40;57.10;;;;;;5033572;28;19916;-77
2021/04/27 11:59:39;;;;;;;;;;;19.40;57.10;;;;;;5025833;28;19971;-76
2021/04/27 12:02:04;;;;;;;;;;;19.40;57.10;;;;;;5041668;28;19912;-76
2021/04/27 12:04:30;;;;;;;;;;;19.40;57.10;;;;;;5053532;28;19917;-76
2021/04/27 12:07:00;;;;;;;;;;;19.40;57.10;;;;;;5054079;28;19925;-77
2021/04/27 12:09:38;;;;;;;;;;;19.40;57.10;;;;;;5035236;28;19970;-76
2021/04/27 12:12:11;;;;;;;;;;;19.40;57.00;;;;;;5046948;28;19920;-76
2021/04/27 12:14:36;;;;;;;;;;;19.40;57.10;;;;;;5039963;28;19943;-77
2021/04/27 12:17:02;;;;;;;;;;;19.40;57.00;;;;;;5037326;28;20358;-77
2021/04/27 12:19:27;;;;;;;;;;;19.40;57.00;;;;;;5034956;28;19913;-77
2021/04/27 12:21:54;;;;;;;;;;;19.40;57.00;;;;;;5033127;28;19913;-78
2021/04/27 12:24:23;;;;;;;;;;;19.50;57.00;;;;;;5028556;28;20366;-77
2021/04/27 12:26:50;;;;;;;;;;;19.40;57.00;;;;;;5036961;28;19935;-76
2021/04/27 12:29:16;;;;;;;;;;;19.50;57.00;;;;;;5057347;28;20011;-77
2021/04/27 12:31:43;;;;;;;;;;;19.50;57.00;;;;;;5052833;28;20025;-77
2021/04/27 12:34:13;;;;;;;;;;;19.40;57.00;;;;;;5042969;28;19913;-77
2021/04/27 12:36:39;;;;;;;;;;;19.50;57.00;;;;;;5053049;28;19913;-77
2021/04/27 12:39:25;;;;;;;;;;;19.50;57.00;;;;;;5052796;28;19982;-77
2021/04/27 12:41:52;;;;;;;;;;;19.40;57.00;;;;;;5050129;28;19917;-76
2021/04/27 12:44:27;;;;;;;;;;;19.40;57.00;;;;;;5058530;28;19935;-77
2021/04/27 12:46:53;;;;;;;;;;;19.50;57.00;;;;;;5055318;28;20003;-77
2021/04/27 12:49:26;;;;;;;;;;;19.50;57.00;;;;;;5052763;28;19944;-77
2021/04/27 12:52:12;;;;;;;;;;;19.50;57.00;;;;;;5034711;28;19913;-78
2021/04/27 12:54:38;;;;;;;;;;;19.50;57.00;;;;;;5022050;28;19912;-77
2021/04/27 12:57:04;;;;;;;;;;;19.40;57.00;;;;;;5034941;28;20281;-76
2021/04/27 12:59:29;;;;;;;;;;;19.50;57.00;;;;;;5053258;28;19958;-77
2021/04/27 13:01:59;;;;;;;;;;;19.50;57.00;;;;;;5037479;28;19920;-77
2021/04/27 13:04:28;;;;;;;;;;;19.50;56.90;;;;;;5038961;28;19909;-78
2021/04/27 13:06:53;;;;;;;;;;;19.50;56.90;;;;;;5032053;28;20278;-76
2021/04/27 13:09:25;;;;;;;;;;;19.50;56.90;;;;;;5033842;28;19913;-77
2021/04/27 13:12:01;;;;;;;;;;;19.50;56.90;;;;;;5035988;28;20278;-77
2021/04/27 13:14:36;;;;;;;;;;;19.50;56.90;;;;;;5029252;28;19987;-76
2021/04/27 13:17:02;;;;;;;;;;;19.50;56.90;;;;;;5034478;28;19913;-77
2021/04/27 13:19:28;;;;;;;;;;;19.50;56.90;;;;;;5036679;28;19928;-77
2021/04/27 13:22:11;;;;;;;;;;;19.50;56.90;;;;;;5040923;28;19913;-77
2021/04/27 13:24:40;;;;;;;;;;;19.50;56.90;;;;;;5030580;28;19957;-77
2021/04/27 13:27:06;;;;;;;;;;;19.50;56.90;;;;;;5035666;28;19920;-77
2021/04/27 13:29:38;;;;;;;;;;;19.50;56.90;;;;;;5034700;28;19913;-77
2021/04/27 13:32:10;;;;;;;;;;;19.50;56.90;;;;;;5035881;28;20358;-77
2021/04/27 13:34:36;;;;;;;;;;;19.50;56.90;;;;;;5049210;28;19913;-77
2021/04/27 13:37:01;;;;;;;;;;;19.50;56.90;;;;;;5031758;28;19913;-77
2021/04/27 13:39:26;;;;;;;;;;;19.50;56.90;;;;;;5033906;28;20370;-77
2021/04/27 13:41:54;;;;;;;;;;;19.50;56.90;;;;;;5035643;28;19913;-77
2021/04/27 13:44:19;;;;;;;;;;;19.50;56.80;;;;;;5033922;28;19963;-77
2021/04/27 13:46:46;;;;;;;;;;;19.50;56.80;;;;;;5034198;28;19940;-77
2021/04/27 13:49:12;;;;;;;;;;;19.50;56.80;;;;;;5035019;28;19922;-78
2021/04/27 13:51:37;;;;;;;;;;;19.50;56.90;;;;;;5047415;28;19925;-78
2021/04/27 13:54:04;;;;;;;;;;;19.50;56.90;;;;;;5033563;28;19959;-78
2021/04/27 13:56:29;;;;;;;;;;;19.50;56.80;;;;;;5034246;28;20017;-77
2021/04/27 13:58:55;;;;;;;;;;;19.50;56.90;;;;;;5037418;28;19995;-77
2021/04/27 14:01:20;;;;;;;;;;;19.50;56.80;;;;;;5036000;28;19924;-76
2021/04/27 14:03:46;;;;;;;;;;;19.50;56.80;;;;;;5034942;28;19913;-77
2021/04/27 14:06:11;;;;;;;;;;;19.50;56.80;;;;;;5033322;28;19928;-76
2021/04/27 14:08:39;;;;;;;;;;;19.50;56.80;;;;;;5033052;28;19913;-77
2021/04/27 14:11:06;;;;;;;;;;;19.50;56.80;;;;;;5033423;28;20363;-76
2021/04/27 14:13:32;;;;;;;;;;;19.50;56.80;;;;;;5021464;28;20008;-75
2021/04/27 14:16:00;;;;;;;;;;;19.50;56.80;;;;;;5036948;28;20058;-77
2021/04/27 14:18:26;;;;;;;;;;;19.60;56.80;;;;;;5031920;28;20004;-76